Time;durP1;ratioP1;P1;durP2;ratioP2;P2;SDS_P1;SDS_P2;PMS_P1;PMS_P2;Temp;Humidity;BMP_temperature;BMP_pressure;BME280_temperature;BME280_humidity;BME280_pressure;Samples;Min_cycle;Max_cycle;Signal;HPM_P1;HPM_P2
2022/04/27 00:00:59;;;;;;;13.80;6.50;;;7.00;99.90;;;;;;4971503;28;20099;-68
2022/04/27 00:03:25;;;;;;;11.52;5.78;;;7.00;99.90;;;;;;4972041;28;20265;-67
2022/04/27 00:05:51;;;;;;;9.85;6.30;;;7.00;99.90;;;;;;4986929;28;20058;-67
2022/04/27 00:08:16;;;;;;;11.50;6.85;;;6.90;99.90;;;;;;4971362;28;20042;-67
2022/04/27 00:10:42;;;;;;;12.98;6.55;;;6.90;99.90;;;;;;4971261;28;20043;-68
2022/04/27 00:13:13;;;;;;;10.57;6.25;;;6.90;99.90;;;;;;4991187;28;20038;-66
2022/04/27 00:15:40;;;;;;;9.63;6.63;;;6.90;99.90;;;;;;4994312;28;20042;-68
2022/04/27 00:18:06;;;;;;;11.43;5.80;;;6.90;99.90;;;;;;4994389;28;20057;-68
2022/04/27 00:20:32;;;;;;;7.65;5.70;;;6.90;99.90;;;;;;4994343;28;20034;-66
2022/04/27 00:22:57;;;;;;;9.20;5.85;;;6.80;99.90;;;;;;5005882;28;20118;-68
2022/04/27 00:25:23;;;;;;;9.20;6.13;;;6.90;99.90;;;;;;4994590;28;20046;-67
2022/04/27 00:27:49;;;;;;;10.07;6.05;;;6.80;99.90;;;;;;4993946;28;20128;-66
2022/04/27 00:30:15;;;;;;;8.73;5.90;;;6.90;99.90;;;;;;4978041;28;20065;-67
2022/04/27 00:32:40;;;;;;;8.82;6.07;;;6.90;99.90;;;;;;4990004;28;20047;-67
2022/04/27 00:35:08;;;;;;;11.30;6.57;;;6.90;99.90;;;;;;4990746;28;20526;-67
2022/04/27 00:37:34;;;;;;;10.00;5.80;;;6.80;99.90;;;;;;4974204;28;20097;-67
2022/04/27 00:40:00;;;;;;;9.90;6.22;;;6.80;99.90;;;;;;4974412;28;20042;-67
2022/04/27 00:42:26;;;;;;;8.57;6.45;;;6.70;99.90;;;;;;4984946;28;20064;-67
2022/04/27 00:44:52;;;;;;;11.45;6.15;;;6.80;99.90;;;;;;4993772;28;20496;-67
2022/04/27 00:47:18;;;;;;;10.82;6.25;;;6.70;99.90;;;;;;4992789;28;20054;-67
2022/04/27 00:49:49;;;;;;;10.00;6.22;;;6.70;99.90;;;;;;4977518;28;20498;-68
2022/04/27 00:52:16;;;;;;;11.10;6.43;;;6.70;99.90;;;;;;4984522;28;20035;-67
2022/04/27 00:54:46;;;;;;;8.55;5.63;;;6.70;99.90;;;;;;4990351;28;20082;-68
2022/04/27 00:57:11;;;;;;;9.73;5.47;;;6.80;99.90;;;;;;4974090;28;20050;-69
2022/04/27 00:59:38;;;;;;;10.32;6.15;;;6.80;99.90;;;;;;4974089;28;20310;-67
2022/04/27 01:02:07;;;;;;;9.63;5.88;;;6.80;99.90;;;;;;4980826;28;20049;-68
2022/04/27 01:04:33;;;;;;;12.48;6.10;;;6.80;99.90;;;;;;4993389;28;20112;-66
2022/04/27 01:06:59;;;;;;;10.70;6.30;;;6.80;99.90;;;;;;4993211;28;20361;-69
2022/04/27 01:09:26;;;;;;;8.98;6.15;;;6.80;99.90;;;;;;4994839;28;20048;-67
2022/04/27 01:11:53;;;;;;;11.73;6.15;;;6.70;99.90;;;;;;5004076;28;20450;-66
2022/04/27 01:14:19;;;;;;;10.50;6.85;;;6.60;99.90;;;;;;4957657;28;20073;-69
2022/04/27 01:16:57;;;;;;;13.40;6.75;;;6.70;99.90;;;;;;4989351;28;20046;-67
2022/04/27 01:19:23;;;;;;;11.65;6.50;;;6.60;99.90;;;;;;4974902;28;20046;-67
2022/04/27 01:21:54;;;;;;;11.48;6.38;;;6.50;99.90;;;;;;4978317;28;20065;-67
2022/04/27 01:24:25;;;;;;;10.55;6.82;;;6.50;99.90;;;;;;4993197;28;20313;-67
2022/04/27 01:26:52;;;;;;;9.75;7.10;;;6.50;99.90;;;;;;4992961;28;20065;-66
2022/04/27 01:29:19;;;;;;;12.43;7.05;;;6.40;99.90;;;;;;4992796;28;20058;-66
2022/04/27 01:31:46;;;;;;;11.13;6.95;;;6.30;99.90;;;;;;4993857;28;20062;-66
2022/04/27 01:34:12;;;;;;;12.45;7.65;;;6.30;99.90;;;;;;4992674;28;20035;-66
2022/04/27 01:36:38;;;;;;;12.90;7.70;;;6.30;99.90;;;;;;4976264;28;20101;-67
2022/04/27 01:39:04;;;;;;;11.00;7.75;;;6.30;99.90;;;;;;4992993;28;20058;-67
2022/04/27 01:41:30;;;;;;;10.63;7.22;;;6.20;99.90;;;;;;4973903;28;20467;-66
2022/04/27 01:43:57;;;;;;;13.82;8.15;;;6.10;99.90;;;;;;4973336;28;20051;-66
2022/04/27 01:46:24;;;;;;;11.73;8.00;;;6.10;99.90;;;;;;4972632;28;20058;-67
2022/04/27 01:48:52;;;;;;;11.77;8.30;;;6.00;99.90;;;;;;4973269;28;20062;-67
2022/04/27 01:54:15;;;;;;;13.18;7.63;;;6.00;99.90;;;;;;4992792;28;20050;-66
2022/04/27 01:56:41;;;;;;;9.45;7.68;;;6.00;99.90;;;;;;4992194;28;20073;-67
2022/04/27 01:59:09;;;;;;;10.57;8.40;;;6.00;99.90;;;;;;4976407;28;20058;-67
2022/04/27 02:01:35;;;;;;;11.75;8.70;;;6.10;99.90;;;;;;4989256;28;20412;-67
2022/04/27 02:04:00;;;;;;;14.68;8.50;;;6.10;99.90;;;;;;4989399;28;20047;-67
2022/04/27 02:06:26;;;;;;;11.43;8.43;;;6.10;99.90;;;;;;4956535;28;20349;-67
2022/04/27 02:08:52;;;;;;;15.68;7.95;;;6.10;99.90;;;;;;4989271;28;20046;-67
2022/04/27 02:11:20;;;;;;;11.57;7.90;;;6.20;99.90;;;;;;4956980;28;20038;-67
2022/04/27 02:13:46;;;;;;;10.43;7.85;;;6.30;99.90;;;;;;4992201;28;20042;-67
2022/04/27 02:16:12;;;;;;;11.60;8.57;;;6.40;99.90;;;;;;4991664;28;20125;-67
2022/04/27 02:18:38;;;;;;;12.23;8.40;;;6.50;99.90;;;;;;4992245;28;20125;-66
2022/04/27 02:21:04;;;;;;;13.23;8.57;;;6.50;99.90;;;;;;4992228;28;20404;-66
2022/04/27 02:23:29;;;;;;;12.65;8.27;;;6.50;99.90;;;;;;4974007;28;20126;-67
2022/04/27 02:26:00;;;;;;;15.75;8.25;;;6.50;99.90;;;;;;4972244;28;20624;-66
2022/04/27 02:28:26;;;;;;;15.55;8.73;;;6.50;99.90;;;;;;4972739;28;20129;-67
2022/04/27 02:30:51;;;;;;;13.98;7.95;;;6.60;99.90;;;;;;4973881;28;20066;-67
2022/04/27 02:33:17;;;;;;;9.38;7.03;;;6.70;99.90;;;;;;4971978;28;20168;-66
2022/04/27 02:35:43;;;;;;;11.25;7.20;;;6.70;99.90;;;;;;4991291;28;20038;-66
2022/04/27 02:38:08;;;;;;;11.98;7.90;;;6.80;99.90;;;;;;4991707;28;20072;-68
2022/04/27 02:40:35;;;;;;;12.77;7.53;;;7.00;99.90;;;;;;4992074;28;20065;-67
2022/04/27 02:43:00;;;;;;;9.90;7.70;;;7.00;99.90;;;;;;4977819;28;20182;-67
2022/04/27 02:45:26;;;;;;;13.18;8.38;;;6.90;99.90;;;;;;4957306;28;20078;-67
2022/04/27 02:47:51;;;;;;;17.73;8.27;;;6.90;99.90;;;;;;4975321;28;20053;-66
2022/04/27 02:53:01;;;;;;;12.37;8.00;;;6.90;99.90;;;;;;4989202;28;20116;-67
2022/04/27 02:55:27;;;;;;;11.55;7.45;;;6.90;99.90;;;;;;4994553;28;20336;-67
2022/04/27 02:57:52;;;;;;;12.48;7.80;;;6.90;99.90;;;;;;4994687;28;20038;-67
2022/04/27 03:00:18;;;;;;;11.25;7.32;;;7.00;99.90;;;;;;4994526;28;20041;-67
2022/04/27 03:02:44;;;;;;;9.30;7.30;;;7.00;99.90;;;;;;4966743;28;20042;-67
2022/04/27 03:05:09;;;;;;;12.52;8.02;;;7.10;99.90;;;;;;4958915;28;20034;-67
2022/04/27 03:07:35;;;;;;;11.88;7.00;;;7.10;99.90;;;;;;4975409;28;20065;-67
2022/04/27 03:10:01;;;;;;;14.52;7.82;;;7.10;99.90;;;;;;4975125;28;20439;-68
2022/04/27 03:12:26;;;;;;;12.70;7.45;;;7.20;99.90;;;;;;4984247;28;20052;-68
2022/04/27 03:14:52;;;;;;;12.90;7.72;;;7.20;99.90;;;;;;4994463;28;20041;-67
2022/04/27 03:17:17;;;;;;;10.02;7.38;;;7.30;99.90;;;;;;4994054;28;20045;-67
2022/04/27 03:19:43;;;;;;;13.00;7.00;;;7.30;99.90;;;;;;4994414;28;20046;-67
2022/04/27 03:22:09;;;;;;;11.70;7.88;;;7.30;99.90;;;;;;4987340;28;20046;-67
2022/04/27 03:24:35;;;;;;;13.68;7.32;;;7.30;99.90;;;;;;4975199;28;20046;-67
2022/04/27 03:27:00;;;;;;;11.30;7.93;;;7.30;99.90;;;;;;4974547;28;20082;-68
2022/04/27 03:29:26;;;;;;;12.48;7.88;;;7.30;99.90;;;;;;4975397;28;20138;-66
2022/04/27 03:31:52;;;;;;;13.73;8.25;;;7.30;99.90;;;;;;4978982;28;20105;-67
2022/04/27 03:34:17;;;;;;;14.60;8.80;;;7.30;99.90;;;;;;4994658;28;20041;-67
2022/04/27 03:36:43;;;;;;;19.30;8.80;;;7.30;99.90;;;;;;4993976;28;20470;-67
2022/04/27 03:39:08;;;;;;;18.55;9.98;;;7.20;99.90;;;;;;4978031;28;20041;-67
2022/04/27 03:41:34;;;;;;;17.52;8.85;;;7.30;99.90;;;;;;4991962;28;20042;-67
2022/04/27 03:44:00;;;;;;;17.35;8.85;;;7.30;99.90;;;;;;4974673;28;20046;-68
2022/04/27 03:46:25;;;;;;;19.30;9.30;;;7.30;99.90;;;;;;4973593;28;20094;-67
2022/04/27 03:48:52;;;;;;;19.70;9.18;;;7.30;99.90;;;;;;4975623;28;20058;-68
2022/04/27 03:51:17;;;;;;;16.35;8.43;;;7.40;99.90;;;;;;4976591;28;20721;-67
2022/04/27 03:53:44;;;;;;;13.05;8.35;;;7.40;99.90;;;;;;4994173;28;20125;-64
2022/04/27 03:56:10;;;;;;;15.55;9.00;;;7.40;99.90;;;;;;4994800;28;20432;-64
2022/04/27 03:58:35;;;;;;;11.65;7.90;;;7.40;99.90;;;;;;4994671;28;20103;-67
2022/04/27 04:01:01;;;;;;;13.77;8.15;;;7.50;99.90;;;;;;4994901;28;20054;-66
2022/04/27 04:03:27;;;;;;;12.95;8.38;;;7.50;99.90;;;;;;4994132;28;20050;-65
2022/04/27 04:05:53;;;;;;;15.18;8.98;;;7.50;99.90;;;;;;4994281;28;20460;-65
2022/04/27 04:08:19;;;;;;;14.93;8.60;;;7.50;99.90;;;;;;4978709;28;20447;-66
2022/04/27 04:10:47;;;;;;;13.15;8.38;;;7.50;99.90;;;;;;4995959;28;20121;-66
2022/04/27 04:13:13;;;;;;;14.23;8.57;;;7.50;99.90;;;;;;4980591;28;20378;-66
2022/04/27 04:15:38;;;;;;;14.82;8.75;;;7.50;99.90;;;;;;4959142;28;20178;-66
2022/04/27 04:18:07;;;;;;;13.55;8.30;;;7.60;99.90;;;;;;4974948;28;20086;-66
2022/04/27 04:20:33;;;;;;;14.43;8.43;;;7.60;99.90;;;;;;4974894;28;20062;-66
2022/04/27 04:22:59;;;;;;;12.43;8.40;;;7.60;99.90;;;;;;4987836;28;20053;-66
2022/04/27 04:30:53;;;;;;;13.53;8.43;;;7.60;99.90;;;;;;4995428;28;20055;-66
2022/04/27 04:33:18;;;;;;;14.10;8.52;;;7.70;99.90;;;;;;4962048;28;20329;-66
2022/04/27 04:35:44;;;;;;;14.40;8.27;;;7.60;99.90;;;;;;4990372;28;20046;-66
2022/04/27 04:38:10;;;;;;;14.13;8.48;;;7.70;99.90;;;;;;4974693;28;20138;-66
2022/04/27 04:40:36;;;;;;;13.55;7.85;;;7.70;99.90;;;;;;4974684;28;20324;-66
2022/04/27 04:43:01;;;;;;;15.68;8.05;;;7.70;99.90;;;;;;4988852;28;20057;-67
2022/04/27 04:45:27;;;;;;;13.02;8.00;;;7.80;99.90;;;;;;4995512;28;20097;-67
2022/04/27 04:47:53;;;;;;;13.90;8.32;;;7.80;99.90;;;;;;4998675;28;20133;-67
2022/04/27 04:50:19;;;;;;;14.07;7.72;;;7.80;99.90;;;;;;4980915;28;20104;-67
2022/04/27 04:52:46;;;;;;;11.05;7.63;;;7.70;99.90;;;;;;4996351;28;20096;-67
2022/04/27 04:55:12;;;;;;;12.30;8.10;;;7.80;99.90;;;;;;4997219;28;20048;-68
2022/04/27 04:57:38;;;;;;;12.57;7.72;;;7.90;99.90;;;;;;4996655;28;20045;-66
2022/04/27 05:00:05;;;;;;;14.77;8.32;;;7.90;99.90;;;;;;4997395;28;20152;-66
2022/04/27 05:02:31;;;;;;;10.98;7.53;;;7.90;99.90;;;;;;4988022;28;20058;-66
2022/04/27 05:04:58;;;;;;;11.35;7.70;;;7.90;99.90;;;;;;4995363;28;20082;-66
2022/04/27 05:07:24;;;;;;;12.88;7.30;;;7.90;99.90;;;;;;4977717;28;20145;-67
2022/04/27 05:09:50;;;;;;;11.95;7.55;;;8.00;99.90;;;;;;4977579;28;20529;-67
2022/04/27 05:12:15;;;;;;;12.00;7.20;;;8.10;99.90;;;;;;4984117;28;20042;-67
2022/04/27 05:14:41;;;;;;;11.52;7.28;;;8.20;99.90;;;;;;4996715;28;20320;-69
2022/04/27 05:17:07;;;;;;;10.65;7.97;;;8.30;99.90;;;;;;4980267;28;20129;-69
2022/04/27 05:19:32;;;;;;;10.68;7.82;;;8.30;99.90;;;;;;4996800;28;20494;-67
2022/04/27 05:21:58;;;;;;;11.05;7.57;;;8.30;99.90;;;;;;4991967;28;20409;-67
2022/04/27 05:24:23;;;;;;;13.60;7.72;;;8.30;99.90;;;;;;4977057;28;20038;-67
2022/04/27 05:26:49;;;;;;;10.65;7.20;;;8.40;99.90;;;;;;4976757;28;20053;-67
2022/04/27 05:31:59;;;;;;;12.02;7.03;;;8.30;99.90;;;;;;4981181;28;20037;-66
2022/04/27 05:34:29;;;;;;;13.32;7.20;;;8.40;99.90;;;;;;4996653;28;20065;-67
2022/04/27 05:36:56;;;;;;;10.93;7.13;;;8.40;99.90;;;;;;4996374;28;20056;-68
2022/04/27 05:39:21;;;;;;;12.18;7.30;;;8.40;99.90;;;;;;4996522;28;20064;-68
2022/04/27 05:41:50;;;;;;;13.90;7.40;;;8.40;99.90;;;;;;4993326;28;20514;-67
2022/04/27 05:44:21;;;;;;;14.68;9.43;;;8.50;99.90;;;;;;4976657;28;20121;-67
2022/04/27 05:46:52;;;;;;;11.38;8.60;;;8.50;99.90;;;;;;4976392;28;20054;-67
2022/04/27 05:49:19;;;;;;;12.85;8.73;;;8.40;99.90;;;;;;4976692;28;20054;-67
2022/04/27 05:51:46;;;;;;;16.38;9.48;;;8.30;99.90;;;;;;4978922;28;20076;-66
2022/04/27 05:54:15;;;;;;;12.48;8.55;;;8.20;99.90;;;;;;4996083;28;20046;-68
2022/04/27 05:56:42;;;;;;;14.98;8.77;;;8.20;99.90;;;;;;4995725;28;20172;-67
2022/04/27 05:59:08;;;;;;;13.77;8.95;;;8.20;99.90;;;;;;4996274;28;20042;-67
2022/04/27 06:01:34;;;;;;;10.30;7.82;;;8.20;99.90;;;;;;4994383;28;20136;-67
2022/04/27 06:04:00;;;;;;;12.43;7.82;;;8.30;99.90;;;;;;4976657;28;20046;-66
2022/04/27 06:06:26;;;;;;;12.63;7.78;;;8.30;99.90;;;;;;4976062;28;20545;-67
2022/04/27 06:08:52;;;;;;;9.65;6.93;;;8.40;99.90;;;;;;4976339;28;20031;-67
2022/04/27 06:11:19;;;;;;;11.70;7.80;;;8.50;99.90;;;;;;4976271;28;20091;-67
2022/04/27 06:13:46;;;;;;;9.93;7.45;;;8.50;99.90;;;;;;4994392;28;20072;-67
2022/04/27 06:16:15;;;;;;;14.05;7.82;;;8.70;99.90;;;;;;4995203;28;20041;-67
2022/04/27 06:18:42;;;;;;;13.02;7.45;;;8.70;99.90;;;;;;4995713;28;20084;-67
2022/04/27 06:21:11;;;;;;;10.88;7.30;;;8.80;99.90;;;;;;4979382;28;20360;-68
2022/04/27 06:23:38;;;;;;;10.95;7.57;;;8.70;99.90;;;;;;4978055;28;20050;-67
2022/04/27 06:26:05;;;;;;;13.40;7.85;;;8.80;99.90;;;;;;4975612;28;20145;-67
2022/04/27 06:28:32;;;;;;;12.07;6.95;;;8.90;99.90;;;;;;4975671;28;20104;-68
2022/04/27 06:30:58;;;;;;;11.52;7.47;;;8.90;99.90;;;;;;5009448;28;20196;-67
2022/04/27 06:33:27;;;;;;;10.82;6.97;;;9.00;99.90;;;;;;5005494;28;20030;-67
2022/04/27 06:35:53;;;;;;;12.60;7.72;;;8.90;99.90;;;;;;5010879;28;20048;-66
2022/04/27 06:38:18;;;;;;;11.27;7.47;;;9.10;99.90;;;;;;4995001;28;20042;-67
2022/04/27 06:40:44;;;;;;;13.18;7.15;;;9.20;99.90;;;;;;5011113;28;20435;-68
2022/04/27 06:43:10;;;;;;;10.73;7.57;;;9.20;99.90;;;;;;5003335;28;20041;-67
2022/04/27 06:45:36;;;;;;;13.98;8.35;;;9.30;99.90;;;;;;5010279;28;20072;-67
2022/04/27 06:48:05;;;;;;;14.27;8.50;;;9.50;99.90;;;;;;4994370;28;20103;-68
2022/04/27 06:50:31;;;;;;;21.27;11.25;;;9.50;99.90;;;;;;5010668;28;20049;-67
2022/04/27 06:52:59;;;;;;;17.58;10.88;;;9.60;99.90;;;;;;5003742;28;20129;-66
2022/04/27 06:55:26;;;;;;;17.38;9.85;;;9.60;99.90;;;;;;4994399;28;20124;-66
2022/04/27 06:57:52;;;;;;;18.85;10.65;;;9.70;99.90;;;;;;5010943;28;20128;-67
2022/04/27 07:00:18;;;;;;;16.48;9.85;;;9.70;99.90;;;;;;5010973;28;20045;-65
2022/04/27 07:02:44;;;;;;;17.17;9.57;;;9.70;99.90;;;;;;4999296;28;20037;-66
2022/04/27 07:05:16;;;;;;;15.45;8.88;;;9.60;99.90;;;;;;5009976;28;20153;-67
2022/04/27 07:07:42;;;;;;;13.82;8.60;;;9.70;99.90;;;;;;5010537;28;20099;-69
2022/04/27 07:10:08;;;;;;;12.73;8.13;;;9.80;99.90;;;;;;5011322;28;20130;-67
2022/04/27 07:12:33;;;;;;;14.48;7.20;;;9.90;99.90;;;;;;4996163;28;20427;-67
2022/04/27 07:14:59;;;;;;;12.20;7.07;;;10.00;99.90;;;;;;4998346;28;20041;-67
2022/04/27 07:17:25;;;;;;;15.18;8.27;;;10.10;99.90;;;;;;5011180;28;20141;-67
2022/04/27 07:19:50;;;;;;;11.30;6.78;;;10.00;99.90;;;;;;5010076;28;20429;-67
2022/04/27 07:22:16;;;;;;;9.70;5.68;;;10.10;99.90;;;;;;5001455;28;20500;-68
2022/04/27 07:24:44;;;;;;;9.80;5.18;;;10.30;99.90;;;;;;4974908;28;20042;-63
2022/04/27 07:27:11;;;;;;;9.77;5.35;;;10.30;99.90;;;;;;5007245;28;20061;-70
2022/04/27 07:29:37;;;;;;;11.80;5.47;;;10.30;99.90;;;;;;5010416;28;20041;-67
2022/04/27 07:32:03;;;;;;;10.25;4.90;;;10.40;99.90;;;;;;5008063;28;20067;-69
2022/04/27 07:34:34;;;;;;;10.95;5.55;;;10.50;99.90;;;;;;5010006;28;20434;-67
2022/04/27 07:37:01;;;;;;;9.70;5.45;;;10.70;99.90;;;;;;5010014;28;20364;-68
2022/04/27 07:39:31;;;;;;;8.05;3.90;;;10.80;99.90;;;;;;5010567;28;20046;-69
2022/04/27 07:41:57;;;;;;;8.48;4.13;;;11.10;99.90;;;;;;5011033;28;20081;-68
2022/04/27 07:44:24;;;;;;;8.60;4.32;;;11.30;99.90;;;;;;5005326;28;20033;-70
2022/04/27 07:46:50;;;;;;;5.88;3.60;;;11.50;99.90;;;;;;5003167;28;20072;-70
2022/04/27 07:49:16;;;;;;;8.52;3.65;;;11.60;99.90;;;;;;4994001;28;20033;-63
2022/04/27 07:51:42;;;;;;;6.65;3.55;;;11.80;99.90;;;;;;5008661;28;20176;-69
2022/04/27 07:54:08;;;;;;;5.07;3.15;;;12.00;99.90;;;;;;4991646;28;20038;-65
2022/04/27 07:56:33;;;;;;;4.88;2.70;;;12.10;99.90;;;;;;5011313;28;20037;-66
2022/04/27 07:58:59;;;;;;;5.38;2.67;;;12.10;99.90;;;;;;4993938;28;20061;-65
2022/04/27 08:01:24;;;;;;;6.72;2.63;;;12.30;99.90;;;;;;5011551;28;20053;-65
2022/04/27 08:03:50;;;;;;;4.90;2.50;;;12.30;99.90;;;;;;4971338;28;20053;-67
2022/04/27 08:06:16;;;;;;;7.57;2.50;;;12.30;99.90;;;;;;5011306;28;20049;-65
2022/04/27 08:08:41;;;;;;;4.47;1.98;;;12.30;99.90;;;;;;4994012;28;20485;-69
2022/04/27 08:11:09;;;;;;;5.05;2.70;;;12.40;99.90;;;;;;4977832;28;20152;-69
2022/04/27 08:13:35;;;;;;;6.30;2.70;;;12.50;99.90;;;;;;4993921;28;20049;-68
2022/04/27 08:16:01;;;;;;;4.00;2.60;;;12.40;99.90;;;;;;4958235;28;20051;-67
2022/04/27 08:18:27;;;;;;;3.95;2.20;;;12.40;99.90;;;;;;4958341;28;20317;-67
2022/04/27 08:23:40;;;;;;;5.32;1.92;;;12.20;99.90;;;;;;5008287;28;20093;-67
2022/04/27 08:26:06;;;;;;;6.72;2.33;;;12.20;99.90;;;;;;4993505;28;20180;-68
2022/04/27 08:28:33;;;;;;;4.47;2.40;;;12.40;99.90;;;;;;4994092;28;20034;-68
2022/04/27 08:31:00;;;;;;;4.68;2.45;;;12.40;99.90;;;;;;5010140;28;20204;-68
2022/04/27 08:33:26;;;;;;;6.13;2.40;;;12.40;99.90;;;;;;4985634;28;20042;-68
2022/04/27 08:35:55;;;;;;;6.53;2.45;;;12.40;99.90;;;;;;4977481;28;20061;-68
2022/04/27 08:38:21;;;;;;;6.57;2.55;;;12.40;99.90;;;;;;4991785;28;20460;-68
2022/04/27 08:40:50;;;;;;;5.97;2.25;;;12.40;99.90;;;;;;4997366;28;20144;-71
2022/04/27 08:43:16;;;;;;;6.85;2.40;;;12.50;99.90;;;;;;5010140;28;20041;-68
2022/04/27 08:45:43;;;;;;;7.90;2.75;;;12.60;99.90;;;;;;5012214;28;20054;-70
2022/04/27 08:48:11;;;;;;;8.13;3.08;;;12.70;99.90;;;;;;5012779;28;20354;-71
2022/04/27 08:50:38;;;;;;;4.88;2.85;;;12.50;99.90;;;;;;5013072;28;20232;-69
2022/04/27 08:53:04;;;;;;;5.20;2.83;;;12.40;99.90;;;;;;5014547;28;20034;-70
2022/04/27 08:55:30;;;;;;;6.50;3.20;;;12.40;99.90;;;;;;5013276;28;20415;-68
2022/04/27 08:58:16;;;;;;;7.35;3.80;;;12.30;99.90;;;;;;4996478;28;20438;-69
2022/04/27 09:00:44;;;;;;;7.13;3.33;;;12.30;99.90;;;;;;5010829;28;20052;-71
2022/04/27 09:03:32;;;;;;;8.23;3.15;;;12.20;99.90;;;;;;5005901;28;20042;-69
2022/04/27 09:06:05;;;;;;;5.50;3.13;;;12.30;99.90;;;;;;5013210;28;20483;-69
2022/04/27 09:08:49;;;;;;;7.40;3.47;;;12.50;99.90;;;;;;5013004;28;20046;-69
2022/04/27 09:11:18;;;;;;;7.00;3.60;;;12.60;99.90;;;;;;5011251;28;20072;-70
2022/04/27 09:13:53;;;;;;;9.02;3.42;;;12.60;99.90;;;;;;5008889;28;20049;-69
2022/04/27 09:16:21;;;;;;;5.75;2.88;;;12.80;99.90;;;;;;5011907;28;20164;-68
2022/04/27 09:22:02;;;;;;;6.95;3.38;;;13.10;99.90;;;;;;5009012;28;20485;-68
2022/04/27 09:24:29;;;;;;;5.97;3.53;;;13.00;99.90;;;;;;4994342;28;20132;-67
2022/04/27 09:27:11;;;;;;;6.47;3.30;;;13.20;99.90;;;;;;5012131;28;20426;-70
2022/04/27 09:29:40;;;;;;;7.95;3.42;;;13.10;99.70;;;;;;5013993;28;20034;-68
2022/04/27 09:32:06;;;;;;;5.95;3.03;;;13.20;99.90;;;;;;4995704;28;20443;-68
2022/04/27 09:34:46;;;;;;;10.50;5.47;;;13.10;99.80;;;;;;5013485;28;20096;-67
2022/04/27 09:37:18;;;;;;;7.30;3.00;;;13.20;99.90;;;;;;5014013;28;20102;-69
2022/04/27 09:40:05;;;;;;;7.68;3.08;;;13.10;99.50;;;;;;5014167;28;20100;-62
2022/04/27 09:42:36;;;;;;;6.70;3.47;;;13.10;99.60;;;;;;5003295;28;20107;-69
2022/04/27 09:45:17;;;;;;;6.82;3.40;;;13.20;99.70;;;;;;4984901;28;20053;-68
2022/04/27 09:47:57;;;;;;;7.20;3.40;;;13.00;99.20;;;;;;5013830;28;20041;-70
2022/04/27 09:50:24;;;;;;;7.40;3.63;;;12.90;99.60;;;;;;5014213;28;20042;-71
2022/04/27 09:52:50;;;;;;;8.27;3.03;;;13.00;99.80;;;;;;4992037;28;20040;-68
2022/04/27 09:55:16;;;;;;;7.00;3.08;;;12.90;99.90;;;;;;4981254;28;20052;-68
2022/04/27 09:57:42;;;;;;;5.00;3.10;;;12.80;99.10;;;;;;4996076;28;20069;-68
2022/04/27 10:00:12;;;;;;;7.63;3.15;;;12.60;99.60;;;;;;4996100;28;20065;-67
2022/04/27 10:02:40;;;;;;;5.82;3.47;;;12.60;99.80;;;;;;4976794;28;20052;-67
2022/04/27 10:05:07;;;;;;;6.00;3.15;;;12.60;99.90;;;;;;5014752;28;20132;-68
2022/04/27 10:07:34;;;;;;;6.65;3.20;;;12.70;99.90;;;;;;4980199;28;20350;-67
2022/04/27 10:10:04;;;;;;;6.90;3.17;;;12.90;99.60;;;;;;4997375;28;20112;-67
2022/04/27 10:12:35;;;;;;;8.32;3.63;;;12.80;99.90;;;;;;4990879;28;20073;-67
2022/04/27 10:15:01;;;;;;;7.20;3.58;;;12.80;99.90;;;;;;4977645;28;20089;-67
2022/04/27 10:17:28;;;;;;;10.48;3.85;;;12.80;99.90;;;;;;4977704;28;20050;-67
2022/04/27 10:19:55;;;;;;;5.45;3.03;;;12.90;99.80;;;;;;4977637;28;20053;-66
2022/04/27 10:22:31;;;;;;;10.52;3.80;;;12.90;99.90;;;;;;4982517;28;20112;-67
2022/04/27 10:25:07;;;;;;;7.32;3.67;;;13.00;99.90;;;;;;4996209;28;20042;-68
2022/04/27 10:27:33;;;;;;;6.50;3.10;;;13.00;99.70;;;;;;5014692;28;20060;-66
2022/04/27 10:30:00;;;;;;;8.10;3.58;;;12.80;99.80;;;;;;5014650;28;20451;-67
2022/04/27 10:32:40;;;;;;;6.93;4.00;;;13.00;99.60;;;;;;5008731;28;20034;-67
2022/04/27 10:35:12;;;;;;;5.53;3.20;;;12.90;99.70;;;;;;4976986;28;20408;-67
2022/04/27 10:37:57;;;;;;;9.20;4.15;;;12.90;99.80;;;;;;4994789;28;20034;-68
2022/04/27 10:40:32;;;;;;;;;;;12.90;99.60;;;;;;4990677;28;20065;-70
2022/04/27 10:43:01;;;;;;;4.85;3.80;;;13.00;99.50;;;;;;4994468;28;19921;-65
2022/04/27 10:45:28;;;;;;;7.47;3.53;;;13.20;99.90;;;;;;5010633;28;20439;-64
2022/04/27 10:47:54;;;;;;;8.50;3.75;;;13.50;99.40;;;;;;4988589;28;20073;-65
2022/04/27 10:50:28;;;;;;;10.77;3.78;;;13.50;99.50;;;;;;4996630;28;20041;-65
2022/04/27 10:52:57;;;;;;;5.78;3.63;;;13.50;99.60;;;;;;4987414;28;20415;-65
2022/04/27 10:55:35;;;;;;;10.23;4.13;;;13.50;99.50;;;;;;4980840;28;20042;-68
2022/04/27 10:58:34;;;;;;;6.80;3.63;;;13.60;99.10;;;;;;4994028;28;20063;-65
2022/04/27 11:01:02;;;;;;;15.40;3.78;;;13.80;99.10;;;;;;4983112;28;20508;-68
2022/04/27 11:03:35;;;;;;;6.90;3.83;;;14.10;99.40;;;;;;4993555;28;20065;-67
2022/04/27 11:06:03;;;;;;;7.53;3.45;;;14.10;98.90;;;;;;4979687;28;20042;-66
2022/04/27 11:08:56;;;;;;;6.05;3.72;;;13.80;98.90;;;;;;4996733;28;20536;-67
2022/04/27 11:11:26;;;;;;;15.25;4.30;;;13.80;98.80;;;;;;5014128;28;20038;-66
2022/04/27 11:14:01;;;;;;;7.07;3.85;;;13.60;99.00;;;;;;4963478;28;20082;-66
2022/04/27 11:16:27;;;;;;;5.32;3.95;;;13.40;99.30;;;;;;4976699;28;20104;-66
2022/04/27 11:18:58;;;;;;;9.07;3.97;;;13.40;99.80;;;;;;4976922;28;20411;-66
2022/04/27 11:21:28;;;;;;;7.10;3.88;;;13.20;99.30;;;;;;4977031;28;20065;-66
2022/04/27 11:23:54;;;;;;;6.40;3.92;;;13.20;99.80;;;;;;4993386;28;20095;-66
2022/04/27 11:26:20;;;;;;;5.93;3.63;;;13.20;99.70;;;;;;5011830;28;20045;-66
2022/04/27 11:28:47;;;;;;;12.00;4.30;;;13.30;99.70;;;;;;5013721;28;20040;-66
2022/04/27 11:31:14;;;;;;;8.57;4.53;;;13.40;99.90;;;;;;5013188;28;20439;-67
2022/04/27 11:33:41;;;;;;;7.72;4.43;;;13.20;99.60;;;;;;4984644;28;20038;-66
2022/04/27 11:36:19;;;;;;;9.43;4.72;;;13.10;99.90;;;;;;4960266;28;20048;-67
2022/04/27 11:38:45;;;;;;;9.43;4.75;;;13.20;99.90;;;;;;4983872;28;20045;-66
2022/04/27 11:41:16;;;;;;;9.20;4.43;;;13.20;99.90;;;;;;4994893;28;20186;-68
2022/04/27 11:43:42;;;;;;;9.00;4.53;;;13.10;99.90;;;;;;4979645;28;20034;-67
2022/04/27 11:46:09;;;;;;;6.28;4.20;;;13.10;99.90;;;;;;4974573;28;20061;-68
2022/04/27 11:49:39;;;;;;;8.93;3.90;;;13.10;99.90;;;;;;4976326;28;20050;-67
2022/04/27 11:52:16;;;;;;;6.50;3.65;;;13.10;99.90;;;;;;4978288;28;20077;-67
2022/04/27 11:54:42;;;;;;;7.03;4.05;;;13.00;99.90;;;;;;4995685;28;20125;-68
2022/04/27 11:57:12;;;;;;;7.95;4.22;;;13.00;99.90;;;;;;4996094;28;20456;-67
2022/04/27 11:59:43;;;;;;;8.75;4.07;;;13.00;99.90;;;;;;5013376;28;20100;-67
2022/04/27 12:02:09;;;;;;;8.55;4.40;;;12.90;99.90;;;;;;4993255;28;20128;-68
2022/04/27 12:04:36;;;;;;;11.80;5.10;;;13.00;99.90;;;;;;4993902;28;20803;-69
2022/04/27 12:07:10;;;;;;;9.00;4.60;;;13.00;99.90;;;;;;5014999;28;20408;-68
2022/04/27 12:09:35;;;;;;;10.77;4.93;;;13.00;99.90;;;;;;5016322;28;20073;-64
2022/04/27 12:12:09;;;;;;;8.05;4.30;;;13.00;99.90;;;;;;5013937;28;20477;-64
2022/04/27 12:14:35;;;;;;;10.38;4.78;;;13.10;99.90;;;;;;4979923;28;20049;-64
2022/04/27 12:17:01;;;;;;;10.55;4.63;;;13.30;99.90;;;;;;4980055;28;20058;-68
2022/04/27 12:19:27;;;;;;;9.55;4.80;;;13.50;99.90;;;;;;4980220;28;20133;-64
2022/04/27 12:22:11;;;;;;;9.00;4.40;;;13.60;99.90;;;;;;4980595;28;20038;-71
2022/04/27 12:24:46;;;;;;;9.00;4.40;;;13.70;99.90;;;;;;4982735;28;20053;-71
2022/04/27 12:27:20;;;;;;;9.20;4.43;;;13.80;99.90;;;;;;5001932;28;20115;-70
2022/04/27 12:29:46;;;;;;;9.30;4.60;;;13.70;99.90;;;;;;5015252;28;20099;-70
2022/04/27 12:32:12;;;;;;;7.47;4.28;;;14.00;99.90;;;;;;5011542;28;20117;-70
2022/04/27 12:37:31;;;;;;;8.05;3.67;;;13.80;99.90;;;;;;5014756;28;20038;-69
2022/04/27 12:40:15;;;;;;;7.45;3.58;;;13.80;99.90;;;;;;4998337;28;20044;-70
2022/04/27 12:43:12;;;;;;;12.98;3.72;;;13.90;99.90;;;;;;5009174;28;20046;-71
2022/04/27 12:45:39;;;;;;;10.13;3.50;;;13.90;99.70;;;;;;5005389;28;20451;-70
2022/04/27 12:48:05;;;;;;;8.70;3.80;;;14.00;99.30;;;;;;5014634;28;20026;-71
2022/04/27 12:50:45;;;;;;;7.53;3.78;;;14.00;99.90;;;;;;5013230;28;20049;-69
2022/04/27 12:53:11;;;;;;;9.52;3.53;;;13.90;99.80;;;;;;5012514;28;20034;-70
2022/04/27 12:55:38;;;;;;;9.32;3.53;;;14.00;99.90;;;;;;5011006;28;20050;-70
2022/04/27 12:58:04;;;;;;;8.10;3.38;;;14.00;99.70;;;;;;5010780;28;20046;-68
2022/04/27 13:00:40;;;;;;;9.38;3.15;;;13.90;99.90;;;;;;4996472;28;20041;-69
2022/04/27 13:03:13;;;;;;;10.48;3.20;;;14.00;99.80;;;;;;5008599;28;20099;-69
2022/04/27 13:05:40;;;;;;;9.38;3.47;;;13.80;99.90;;;;;;4996165;28;20489;-69
2022/04/27 13:08:07;;;;;;;8.82;3.30;;;13.70;99.70;;;;;;5012394;28;20037;-68
2022/04/27 13:13:18;;;;;;;10.50;3.70;;;13.40;99.90;;;;;;4996668;28;20068;-70
2022/04/27 13:15:45;;;;;;;12.00;3.50;;;13.30;99.90;;;;;;4998175;28;20158;-70
2022/04/27 13:18:12;;;;;;;11.20;4.10;;;13.20;99.90;;;;;;4997618;28;20145;-71